Time;durP1;ratioP1;P1;durP2;ratioP2;P2;SDS_P1;SDS_P2;PMS_P1;PMS_P2;Temp;Humidity;BMP_temperature;BMP_pressure;BME280_temperature;BME280_humidity;BME280_pressure;Samples;Min_cycle;Max_cycle;Signal;HPM_P1;HPM_P2
2023/05/17 00:02:08;;;;;;;;;;;20.00;41.40;;;;;;5089713;28;19920;-57
2023/05/17 00:04:35;;;;;;;;;;;20.00;41.40;;;;;;5078758;28;19950;-56
2023/05/17 00:07:02;;;;;;;;;;;20.00;41.50;;;;;;5062365;28;20010;-57
2023/05/17 00:09:28;;;;;;;;;;;19.90;41.30;;;;;;5078748;28;19920;-57
2023/05/17 00:11:58;;;;;;;;;;;19.90;41.30;;;;;;5078720;28;19927;-56
2023/05/17 00:14:25;;;;;;;;;;;19.90;41.30;;;;;;5094856;28;19920;-56
2023/05/17 00:16:52;;;;;;;;;;;19.90;41.30;;;;;;5096770;28;19924;-57
2023/05/17 00:19:20;;;;;;;;;;;19.90;41.30;;;;;;5095349;28;20008;-57
2023/05/17 00:21:49;;;;;;;;;;;19.90;41.20;;;;;;5095389;28;19927;-57
2023/05/17 00:24:16;;;;;;;;;;;19.90;41.20;;;;;;5094947;28;19926;-57
2023/05/17 00:26:42;;;;;;;;;;;19.80;41.10;;;;;;5074413;28;19921;-57
2023/05/17 00:29:09;;;;;;;;;;;19.80;41.10;;;;;;5074734;28;19928;-57
2023/05/17 00:31:36;;;;;;;;;;;19.80;41.00;;;;;;5075703;28;20301;-56
2023/05/17 00:34:03;;;;;;;;;;;19.80;41.00;;;;;;5077369;28;19924;-56
2023/05/17 00:36:31;;;;;;;;;;;19.80;41.00;;;;;;5095293;28;20266;-57
2023/05/17 00:38:58;;;;;;;;;;;19.80;41.00;;;;;;5093834;28;19920;-57
2023/05/17 00:41:36;;;;;;;;;;;19.80;40.90;;;;;;5096245;28;19927;-57
2023/05/17 00:44:09;;;;;;;;;;;19.80;40.90;;;;;;5095823;28;20027;-57
2023/05/17 00:46:36;;;;;;;;;;;19.80;40.90;;;;;;5078084;28;19924;-57
2023/05/17 00:49:02;;;;;;;;;;;19.80;40.90;;;;;;5094906;28;19924;-56
2023/05/17 00:51:31;;;;;;;;;;;19.80;40.90;;;;;;5078010;28;19920;-56
2023/05/17 00:53:57;;;;;;;;;;;19.80;40.90;;;;;;5092663;28;19987;-57
2023/05/17 00:56:24;;;;;;;;;;;19.80;40.80;;;;;;5079744;28;19920;-57
2023/05/17 00:58:51;;;;;;;;;;;19.80;40.80;;;;;;5074482;28;19969;-57
2023/05/17 01:01:18;;;;;;;;;;;19.80;40.80;;;;;;5074781;28;19970;-56
2023/05/17 01:03:45;;;;;;;;;;;19.80;41.40;;;;;;5075521;28;19924;-57
2023/05/17 01:06:11;;;;;;;;;;;19.80;40.80;;;;;;5084731;28;19960;-57
2023/05/17 01:08:39;;;;;;;;;;;19.80;40.70;;;;;;5083301;28;20378;-58
2023/05/17 01:11:09;;;;;;;;;;;19.80;40.70;;;;;;5075671;28;20031;-57
2023/05/17 01:13:36;;;;;;;;;;;19.80;40.70;;;;;;5074066;28;20370;-57
2023/05/17 01:16:05;;;;;;;;;;;19.80;40.70;;;;;;5074099;28;19924;-57
2023/05/17 01:18:36;;;;;;;;;;;19.80;40.60;;;;;;5073335;28;19920;-57
2023/05/17 01:21:03;;;;;;;;;;;19.80;40.60;;;;;;5090654;28;19920;-57
2023/05/17 01:23:36;;;;;;;;;;;19.80;40.60;;;;;;5092175;28;19927;-57
2023/05/17 01:26:06;;;;;;;;;;;19.80;40.60;;;;;;5074641;28;19950;-57
2023/05/17 01:28:34;;;;;;;;;;;19.80;40.60;;;;;;5094178;28;19924;-57
2023/05/17 01:31:02;;;;;;;;;;;19.80;40.60;;;;;;5085676;28;20362;-57
2023/05/17 01:33:40;;;;;;;;;;;19.80;40.50;;;;;;5073466;28;19920;-57
2023/05/17 01:36:19;;;;;;;;;;;19.80;40.50;;;;;;5089196;28;20007;-57
2023/05/17 01:38:46;;;;;;;;;;;19.80;40.50;;;;;;5094769;28;19989;-57
2023/05/17 01:41:14;;;;;;;;;;;19.80;40.50;;;;;;5095683;28;19927;-56
2023/05/17 01:43:46;;;;;;;;;;;19.80;40.50;;;;;;5093658;28;20029;-57
2023/05/17 01:46:14;;;;;;;;;;;19.70;40.30;;;;;;5077725;28;20247;-57
2023/05/17 01:48:41;;;;;;;;;;;19.70;40.30;;;;;;5093908;28;19920;-57
2023/05/17 01:51:08;;;;;;;;;;;19.70;40.30;;;;;;5077098;28;19920;-57
2023/05/17 01:53:36;;;;;;;;;;;19.70;40.30;;;;;;5094432;28;19924;-57
2023/05/17 01:56:03;;;;;;;;;;;19.70;40.30;;;;;;5094171;28;19924;-57
2023/05/17 01:58:30;;;;;;;;;;;19.70;40.30;;;;;;5089006;28;19920;-57
2023/05/17 02:00:58;;;;;;;;;;;19.70;40.30;;;;;;5073427;28;19960;-57
2023/05/17 02:03:27;;;;;;;;;;;19.70;40.30;;;;;;5073919;28;19955;-57
2023/05/17 02:05:54;;;;;;;;;;;19.60;40.20;;;;;;5056808;28;20301;-56
2023/05/17 02:08:21;;;;;;;;;;;19.60;40.20;;;;;;5056262;28;20362;-56
2023/05/17 02:10:47;;;;;;;;;;;19.60;40.20;;;;;;5074300;28;19921;-57
2023/05/17 02:13:14;;;;;;;;;;;19.60;40.20;;;;;;5074385;28;19985;-56
2023/05/17 02:15:41;;;;;;;;;;;19.60;40.10;;;;;;5073878;28;19925;-57
2023/05/17 02:18:10;;;;;;;;;;;19.60;40.10;;;;;;5073344;28;19920;-57
2023/05/17 02:20:37;;;;;;;;;;;19.60;40.10;;;;;;5074344;28;19955;-56
2023/05/17 02:23:03;;;;;;;;;;;19.60;40.10;;;;;;5081192;28;19962;-57
2023/05/17 02:25:30;;;;;;;;;;;19.60;40.00;;;;;;5093208;28;19927;-57
2023/05/17 02:28:00;;;;;;;;;;;19.60;40.00;;;;;;5093117;28;19966;-58
2023/05/17 02:30:26;;;;;;;;;;;19.60;40.00;;;;;;5093133;28;20385;-57
2023/05/17 02:32:55;;;;;;;;;;;19.60;40.00;;;;;;5076400;28;19951;-57
2023/05/17 02:35:23;;;;;;;;;;;19.60;40.00;;;;;;5084958;28;19945;-57
2023/05/17 02:37:50;;;;;;;;;;;19.60;40.00;;;;;;5093383;28;20235;-57
2023/05/17 02:40:17;;;;;;;;;;;19.60;40.00;;;;;;5076923;28;20027;-57
2023/05/17 02:45:33;;;;;;;;;;;19.60;39.90;;;;;;5029597;28;19921;-56
2023/05/17 02:48:01;;;;;;;;;;;19.60;39.90;;;;;;5000707;28;19979;-57
2023/05/17 02:50:30;;;;;;;;;;;19.50;39.70;;;;;;5030770;28;20015;-56
2023/05/17 02:52:57;;;;;;;;;;;19.50;39.60;;;;;;5011132;28;19925;-56
2023/05/17 02:55:24;;;;;;;;;;;19.50;39.60;;;;;;5010029;28;19925;-56
2023/05/17 02:57:51;;;;;;;;;;;19.50;39.50;;;;;;5009972;28;19922;-56
2023/05/17 03:00:18;;;;;;;;;;;19.50;39.50;;;;;;5011025;28;19921;-56
2023/05/17 03:02:45;;;;;;;;;;;19.50;39.50;;;;;;5031557;28;19921;-56
2023/05/17 03:05:11;;;;;;;;;;;19.40;39.30;;;;;;5029721;28;19928;-56
2023/05/17 03:07:43;;;;;;;;;;;19.50;39.30;;;;;;5014840;28;19926;-56
2023/05/17 03:10:19;;;;;;;;;;;19.40;39.20;;;;;;5014648;28;20002;-58
2023/05/17 03:12:46;;;;;;;;;;;19.40;39.10;;;;;;5003534;28;20016;-57
2023/05/17 03:15:15;;;;;;;;;;;19.30;39.00;;;;;;5027232;28;19921;-57
2023/05/17 03:17:41;;;;;;;;;;;19.30;39.00;;;;;;5056583;28;19920;-57
2023/05/17 03:20:08;;;;;;;;;;;19.30;38.90;;;;;;5087323;28;20274;-57
2023/05/17 03:22:35;;;;;;;;;;;19.30;38.80;;;;;;5073788;28;19920;-56
2023/05/17 03:25:04;;;;;;;;;;;19.30;38.80;;;;;;5094277;28;20010;-57
2023/05/17 03:27:31;;;;;;;;;;;19.30;38.80;;;;;;5092709;28;19924;-55
2023/05/17 03:29:58;;;;;;;;;;;19.20;38.70;;;;;;5093630;28;19973;-57
2023/05/17 03:32:25;;;;;;;;;;;19.20;38.60;;;;;;5076388;28;19924;-57
2023/05/17 03:34:51;;;;;;;;;;;19.20;38.60;;;;;;5092504;28;19920;-57
2023/05/17 03:37:18;;;;;;;;;;;19.20;38.40;;;;;;5093339;28;19966;-57
2023/05/17 03:39:45;;;;;;;;;;;19.20;38.40;;;;;;5092358;28;19965;-57
2023/05/17 03:42:13;;;;;;;;;;;19.20;38.50;;;;;;5092500;28;20312;-57
2023/05/17 03:44:40;;;;;;;;;;;19.20;38.50;;;;;;5092689;28;19924;-57
2023/05/17 03:47:06;;;;;;;;;;;19.20;38.50;;;;;;5092231;28;19973;-57
2023/05/17 03:49:33;;;;;;;;;;;19.20;38.50;;;;;;5075590;28;19920;-57
2023/05/17 03:52:00;;;;;;;;;;;19.20;38.50;;;;;;5092837;28;19920;-57
2023/05/17 03:54:27;;;;;;;;;;;19.20;38.50;;;;;;5091755;28;20419;-57
2023/05/17 03:56:53;;;;;;;;;;;19.20;38.50;;;;;;5093527;28;19920;-57
2023/05/17 03:59:21;;;;;;;;;;;19.20;38.50;;;;;;5093096;28;19926;-57
2023/05/17 04:01:48;;;;;;;;;;;19.20;38.50;;;;;;5078850;28;19981;-57
2023/05/17 04:04:15;;;;;;;;;;;19.20;38.50;;;;;;5079497;28;19924;-58
2023/05/17 04:06:42;;;;;;;;;;;19.30;38.50;;;;;;5094009;28;19943;-57
2023/05/17 04:09:11;;;;;;;;;;;19.30;38.50;;;;;;5097095;28;19927;-57
2023/05/17 04:11:39;;;;;;;;;;;19.30;38.40;;;;;;5078426;28;19965;-58
2023/05/17 04:14:06;;;;;;;;;;;19.30;38.30;;;;;;5078709;28;19950;-58
2023/05/17 04:16:34;;;;;;;;;;;19.20;38.20;;;;;;5078515;28;19927;-57
2023/05/17 04:19:01;;;;;;;;;;;19.20;38.10;;;;;;5096366;28;19942;-57
2023/05/17 04:21:28;;;;;;;;;;;19.20;38.30;;;;;;5095285;28;19920;-56
2023/05/17 04:23:54;;;;;;;;;;;19.10;37.80;;;;;;5095681;28;19950;-57
2023/05/17 04:26:21;;;;;;;;;;;19.10;37.90;;;;;;5096497;28;19920;-57
2023/05/17 04:28:48;;;;;;;;;;;19.10;37.90;;;;;;5079275;28;20023;-57
2023/05/17 04:31:15;;;;;;;;;;;19.10;37.90;;;;;;5095191;28;20010;-57
2023/05/17 04:33:43;;;;;;;;;;;19.00;37.80;;;;;;5078016;28;19920;-56
2023/05/17 04:36:10;;;;;;;;;;;19.00;37.80;;;;;;5095088;28;19945;-57
2023/05/17 04:38:37;;;;;;;;;;;19.10;37.70;;;;;;5078291;28;19973;-57
2023/05/17 04:41:04;;;;;;;;;;;19.00;37.50;;;;;;5078845;28;19920;-57
2023/05/17 04:43:31;;;;;;;;;;;19.00;37.50;;;;;;5106899;28;19919;-57
2023/05/17 04:45:57;;;;;;;;;;;19.00;37.50;;;;;;5116363;28;19923;-56
2023/05/17 04:48:26;;;;;;;;;;;19.00;37.40;;;;;;5097845;28;19927;-57
2023/05/17 04:50:54;;;;;;;;;;;18.90;37.20;;;;;;5098897;28;19942;-57
2023/05/17 04:53:21;;;;;;;;;;;18.90;37.30;;;;;;5098390;28;20375;-56
2023/05/17 04:55:48;;;;;;;;;;;18.90;37.80;;;;;;5098140;28;19919;-57
2023/05/17 04:58:15;;;;;;;;;;;18.90;37.30;;;;;;5115324;28;19968;-57
2023/05/17 05:00:42;;;;;;;;;;;18.90;37.30;;;;;;5070009;28;19925;-57
2023/05/17 05:03:10;;;;;;;;;;;18.90;37.30;;;;;;5074458;28;19921;-56
2023/05/17 05:05:38;;;;;;;;;;;18.90;37.30;;;;;;5075009;28;19924;-57
2023/05/17 05:08:06;;;;;;;;;;;18.90;37.30;;;;;;5073988;28;19924;-57
2023/05/17 05:10:33;;;;;;;;;;;18.90;37.30;;;;;;5074323;28;19921;-57
2023/05/17 05:13:00;;;;;;;;;;;18.90;37.30;;;;;;5074984;28;19920;-57
2023/05/17 05:15:26;;;;;;;;;;;18.90;37.30;;;;;;5073888;28;20259;-57
2023/05/17 05:17:53;;;;;;;;;;;18.90;37.30;;;;;;5055431;28;19920;-57
2023/05/17 05:20:20;;;;;;;;;;;18.90;37.30;;;;;;5057543;28;19979;-57
2023/05/17 05:22:47;;;;;;;;;;;18.90;37.30;;;;;;5074569;28;19924;-57
2023/05/17 05:25:15;;;;;;;;;;;19.00;37.40;;;;;;5074508;28;19924;-57
2023/05/17 05:27:42;;;;;;;;;;;18.90;37.30;;;;;;5057394;28;19935;-57
2023/05/17 05:30:09;;;;;;;;;;;19.00;37.40;;;;;;5075313;28;19921;-57
2023/05/17 05:32:37;;;;;;;;;;;19.00;37.40;;;;;;5074203;28;19920;-57
2023/05/17 05:35:04;;;;;;;;;;;19.00;37.40;;;;;;5088752;28;20010;-56
2023/05/17 05:37:31;;;;;;;;;;;19.00;37.40;;;;;;5074631;28;19920;-56
2023/05/17 05:39:58;;;;;;;;;;;19.00;37.30;;;;;;5074815;28;19924;-56
2023/05/17 05:42:28;;;;;;;;;;;19.00;37.20;;;;;;5075850;28;20317;-57
2023/05/17 05:44:55;;;;;;;;;;;19.00;37.10;;;;;;5077141;28;19927;-57
2023/05/17 05:47:21;;;;;;;;;;;19.00;37.10;;;;;;5093312;28;19920;-56
2023/05/17 05:49:48;;;;;;;;;;;19.00;37.10;;;;;;5077841;28;19920;-57
2023/05/17 05:52:15;;;;;;;;;;;18.90;37.00;;;;;;5093227;28;19950;-57
2023/05/17 05:54:45;;;;;;;;;;;18.90;36.90;;;;;;5075733;28;19920;-57
2023/05/17 05:57:11;;;;;;;;;;;18.90;36.90;;;;;;5055587;28;19971;-57
2023/05/17 05:59:39;;;;;;;;;;;18.90;36.60;;;;;;5085052;28;19924;-57
2023/05/17 06:02:07;;;;;;;;;;;18.90;36.60;;;;;;5091285;28;19963;-57
2023/05/17 06:04:34;;;;;;;;;;;18.90;36.50;;;;;;5094707;28;19973;-57
2023/05/17 06:07:01;;;;;;;;;;;18.90;36.40;;;;;;5064057;28;19921;-58
2023/05/17 06:09:27;;;;;;;;;;;18.80;36.30;;;;;;5085615;28;19941;-57
2023/05/17 06:11:54;;;;;;;;;;;18.80;36.30;;;;;;5073002;28;19920;-57
2023/05/17 06:14:21;;;;;;;;;;;18.80;36.20;;;;;;5094591;28;19973;-57
2023/05/17 06:16:49;;;;;;;;;;;18.80;35.90;;;;;;5092143;28;20415;-58
2023/05/17 06:19:16;;;;;;;;;;;18.80;36.00;;;;;;5091272;28;19927;-57
2023/05/17 06:21:43;;;;;;;;;;;18.70;35.90;;;;;;5094525;28;19965;-58
2023/05/17 06:24:10;;;;;;;;;;;18.80;35.90;;;;;;5089353;28;19966;-57
2023/05/17 06:26:36;;;;;;;;;;;18.80;35.80;;;;;;5076873;28;19920;-59
2023/05/17 06:29:03;;;;;;;;;;;18.70;35.80;;;;;;5074313;28;20316;-59
2023/05/17 06:31:30;;;;;;;;;;;18.70;36.00;;;;;;5074764;28;19920;-59
2023/05/17 06:33:58;;;;;;;;;;;18.70;36.10;;;;;;5072611;28;19951;-59
2023/05/17 06:36:25;;;;;;;;;;;18.70;36.10;;;;;;5072187;28;19954;-59
2023/05/17 06:38:52;;;;;;;;;;;18.70;36.20;;;;;;5091820;28;19920;-59
2023/05/17 06:41:19;;;;;;;;;;;18.70;36.30;;;;;;5090954;28;19977;-58
2023/05/17 06:43:45;;;;;;;;;;;18.80;36.40;;;;;;5072607;28;20373;-58
2023/05/17 06:46:13;;;;;;;;;;;18.80;36.40;;;;;;5072092;28;19927;-57
2023/05/17 06:48:45;;;;;;;;;;;18.80;36.50;;;;;;5074314;28;20373;-57
2023/05/17 06:51:13;;;;;;;;;;;18.70;36.50;;;;;;5071882;28;19943;-60
2023/05/17 06:53:42;;;;;;;;;;;18.80;36.50;;;;;;5076342;28;20308;-61
2023/05/17 06:56:10;;;;;;;;;;;18.80;36.70;;;;;;5075979;28;19924;-62
2023/05/17 06:58:37;;;;;;;;;;;18.80;36.80;;;;;;5094217;28;19927;-62
2023/05/17 07:01:04;;;;;;;;;;;18.80;37.00;;;;;;5093680;28;19965;-63
2023/05/17 07:03:32;;;;;;;;;;;18.90;37.20;;;;;;5093997;28;19928;-63
2023/05/17 07:05:59;;;;;;;;;;;19.00;37.40;;;;;;5076042;28;19967;-61
2023/05/17 07:08:30;;;;;;;;;;;19.00;37.50;;;;;;5075758;28;19966;-63
2023/05/17 07:10:56;;;;;;;;;;;19.10;37.70;;;;;;5075629;28;19920;-63
2023/05/17 07:13:23;;;;;;;;;;;19.10;37.70;;;;;;5073684;28;19920;-63
2023/05/17 07:15:50;;;;;;;;;;;19.20;37.90;;;;;;5092533;28;19981;-62
2023/05/17 07:18:19;;;;;;;;;;;19.20;37.90;;;;;;5072968;28;19920;-62
2023/05/17 07:20:46;;;;;;;;;;;19.30;38.00;;;;;;5073413;28;19974;-62
2023/05/17 07:23:13;;;;;;;;;;;19.30;38.10;;;;;;5083587;28;20281;-62
2023/05/17 07:25:41;;;;;;;;;;;19.40;38.30;;;;;;5095802;28;19938;-62
2023/05/17 07:28:08;;;;;;;;;;;19.40;38.30;;;;;;5096244;28;19920;-61
2023/05/17 07:30:38;;;;;;;;;;;19.40;38.30;;;;;;5095651;28;19920;-61
2023/05/17 07:33:05;;;;;;;;;;;19.50;38.50;;;;;;5114552;28;19923;-62
2023/05/17 07:35:31;;;;;;;;;;;19.50;38.50;;;;;;5116832;28;19924;-61
2023/05/17 07:37:58;;;;;;;;;;;19.50;38.60;;;;;;5099840;28;20269;-61
2023/05/17 07:40:25;;;;;;;;;;;19.60;38.70;;;;;;5099361;28;19965;-62
2023/05/17 07:42:53;;;;;;;;;;;19.60;38.70;;;;;;5118085;28;19920;-61
2023/05/17 07:45:20;;;;;;;;;;;19.60;38.70;;;;;;5099602;28;19920;-61
2023/05/17 07:47:47;;;;;;;;;;;19.60;38.70;;;;;;5117836;28;20273;-61
2023/05/17 07:50:13;;;;;;;;;;;19.70;38.80;;;;;;5116755;28;20010;-61
2023/05/17 07:52:40;;;;;;;;;;;19.70;38.90;;;;;;5117982;28;19920;-61
2023/05/17 07:55:14;;;;;;;;;;;19.70;38.90;;;;;;5117481;28;19927;-61
2023/05/17 07:57:40;;;;;;;;;;;19.70;39.00;;;;;;5099280;28;19931;-61
2023/05/17 08:00:11;;;;;;;;;;;19.80;39.10;;;;;;5117644;28;20246;-61
2023/05/17 08:02:38;;;;;;;;;;;19.80;39.10;;;;;;5099470;28;19969;-61
2023/05/17 08:05:06;;;;;;;;;;;19.80;39.10;;;;;;5099346;28;19969;-61
2023/05/17 08:07:32;;;;;;;;;;;19.80;39.10;;;;;;5084183;28;20010;-60
2023/05/17 08:09:59;;;;;;;;;;;19.80;39.20;;;;;;5078839;28;19985;-60
2023/05/17 08:12:26;;;;;;;;;;;19.90;39.30;;;;;;5096950;28;19921;-61
2023/05/17 08:14:53;;;;;;;;;;;19.90;39.30;;;;;;5095861;28;19965;-62
2023/05/17 08:17:22;;;;;;;;;;;19.90;39.30;;;;;;5096797;28;19931;-62
2023/05/17 08:19:49;;;;;;;;;;;19.90;39.30;;;;;;5096406;28;20300;-62
2023/05/17 08:22:16;;;;;;;;;;;19.90;39.40;;;;;;5079548;28;19965;-61
2023/05/17 08:24:43;;;;;;;;;;;19.90;39.40;;;;;;5097052;28;19966;-62
2023/05/17 08:27:10;;;;;;;;;;;20.00;39.60;;;;;;5079424;28;20222;-61
2023/05/17 08:29:37;;;;;;;;;;;20.00;39.60;;;;;;5097038;28;20413;-61
2023/05/17 08:32:04;;;;;;;;;;;20.00;39.60;;;;;;5078369;28;19920;-61
2023/05/17 08:34:32;;;;;;;;;;;20.00;39.70;;;;;;5095972;28;19920;-61
2023/05/17 08:37:01;;;;;;;;;;;20.00;39.70;;;;;;5093367;28;19921;-61
2023/05/17 08:39:28;;;;;;;;;;;20.00;39.80;;;;;;5078761;28;19927;-61
2023/05/17 08:41:58;;;;;;;;;;;20.00;39.80;;;;;;5095211;28;19920;-61
2023/05/17 08:44:24;;;;;;;;;;;20.00;39.80;;;;;;5078432;28;20359;-61
2023/05/17 08:46:52;;;;;;;;;;;20.10;39.90;;;;;;5095425;28;19920;-61
2023/05/17 08:49:20;;;;;;;;;;;20.10;39.90;;;;;;5077866;28;19959;-61
2023/05/17 08:51:49;;;;;;;;;;;20.10;39.90;;;;;;5095036;28;20290;-61
2023/05/17 08:54:18;;;;;;;;;;;20.10;39.90;;;;;;5078097;28;19920;-61
2023/05/17 08:56:50;;;;;;;;;;;20.10;39.90;;;;;;5096396;28;19920;-61
2023/05/17 08:59:17;;;;;;;;;;;20.10;39.90;;;;;;5094884;28;19982;-61
2023/05/17 09:01:45;;;;;;;;;;;20.10;40.00;;;;;;5078702;28;19951;-61
2023/05/17 09:04:12;;;;;;;;;;;20.20;40.10;;;;;;5077676;28;20402;-61
2023/05/17 09:06:39;;;;;;;;;;;20.20;40.10;;;;;;5077995;28;19924;-61
2023/05/17 09:09:07;;;;;;;;;;;20.20;40.10;;;;;;5095781;28;19969;-61
2023/05/17 09:11:34;;;;;;;;;;;20.20;40.10;;;;;;5095930;28;19920;-61
2023/05/17 09:14:01;;;;;;;;;;;20.20;40.10;;;;;;5075342;28;20000;-59
2023/05/17 09:16:28;;;;;;;;;;;20.20;40.20;;;;;;5077795;28;19920;-62
2023/05/17 09:18:55;;;;;;;;;;;20.20;40.20;;;;;;5077636;28;19969;-61
2023/05/17 09:21:23;;;;;;;;;;;20.20;40.20;;;;;;5078280;28;19920;-62
2023/05/17 09:23:51;;;;;;;;;;;20.30;40.30;;;;;;5090693;28;19954;-62
2023/05/17 09:26:19;;;;;;;;;;;20.30;40.30;;;;;;5095460;28;19919;-62
2023/05/17 09:28:47;;;;;;;;;;;20.30;40.30;;;;;;5075078;28;19969;-62
2023/05/17 09:31:15;;;;;;;;;;;20.30;40.30;;;;;;5094699;28;20018;-62
2023/05/17 09:33:45;;;;;;;;;;;20.30;40.30;;;;;;5076526;28;19927;-60
2023/05/17 09:36:16;;;;;;;;;;;20.30;40.30;;;;;;5072724;28;19927;-60
2023/05/17 09:38:42;;;;;;;;;;;20.30;40.40;;;;;;5076192;28;20014;-60
2023/05/17 09:41:12;;;;;;;;;;;20.30;40.40;;;;;;5092294;28;19920;-61
2023/05/17 09:43:40;;;;;;;;;;;20.30;40.40;;;;;;5089950;28;19927;-60
2023/05/17 09:46:07;;;;;;;;;;;20.30;40.40;;;;;;5094540;28;19920;-61
2023/05/17 09:48:34;;;;;;;;;;;20.30;40.40;;;;;;5092020;28;20376;-61
2023/05/17 09:51:01;;;;;;;;;;;20.40;40.50;;;;;;5074712;28;19926;-60
2023/05/17 09:53:28;;;;;;;;;;;20.40;40.60;;;;;;5095016;28;19920;-60
2023/05/17 09:55:55;;;;;;;;;;;20.40;40.60;;;;;;5094029;28;19927;-59
2023/05/17 09:58:22;;;;;;;;;;;20.40;40.60;;;;;;5092080;28;19985;-59
2023/05/17 10:00:51;;;;;;;;;;;20.40;40.60;;;;;;5074065;28;19985;-51
2023/05/17 10:03:18;;;;;;;;;;;20.40;40.60;;;;;;5104863;28;19926;-54
2023/05/17 10:05:47;;;;;;;;;;;20.40;40.60;;;;;;5097045;28;19920;-56
2023/05/17 10:08:14;;;;;;;;;;;20.40;40.60;;;;;;5089415;28;19920;-57
2023/05/17 10:10:43;;;;;;;;;;;20.30;41.00;;;;;;5096265;28;20010;-57
2023/05/17 10:13:10;;;;;;;;;;;20.30;40.30;;;;;;5096908;28;19955;-56
2023/05/17 10:15:38;;;;;;;;;;;20.30;40.20;;;;;;5113667;28;19969;-57
2023/05/17 10:18:07;;;;;;;;;;;20.30;40.10;;;;;;5113768;28;20226;-56
2023/05/17 10:20:34;;;;;;;;;;;20.30;40.10;;;;;;5114935;28;20018;-56
2023/05/17 10:23:02;;;;;;;;;;;20.30;40.00;;;;;;5114587;28;19924;-56
2023/05/17 10:25:29;;;;;;;;;;;20.30;39.80;;;;;;5096640;28;19919;-56
2023/05/17 10:27:55;;;;;;;;;;;20.20;39.70;;;;;;5092357;28;19920;-55
2023/05/17 10:30:22;;;;;;;;;;;20.20;39.60;;;;;;5093129;28;19973;-56
2023/05/17 10:32:50;;;;;;;;;;;20.20;39.60;;;;;;5076493;28;19920;-56
2023/05/17 10:35:18;;;;;;;;;;;20.20;39.60;;;;;;5091209;28;19943;-57
2023/05/17 10:37:45;;;;;;;;;;;20.20;39.50;;;;;;5076096;28;19920;-55
2023/05/17 10:40:16;;;;;;;;;;;20.20;39.40;;;;;;5076630;28;19977;-58
2023/05/17 10:42:43;;;;;;;;;;;20.20;39.40;;;;;;5074603;28;19966;-57
2023/05/17 10:45:11;;;;;;;;;;;20.10;39.30;;;;;;5076699;28;19970;-57
2023/05/17 10:47:41;;;;;;;;;;;20.10;39.30;;;;;;5076147;28;20262;-56
2023/05/17 10:50:10;;;;;;;;;;;20.10;39.20;;;;;;5072300;28;20297;-57
2023/05/17 10:52:39;;;;;;;;;;;20.10;39.20;;;;;;5092135;28;19981;-57
2023/05/17 10:55:08;;;;;;;;;;;20.10;39.20;;;;;;5075542;28;19977;-57
2023/05/17 10:57:36;;;;;;;;;;;20.10;39.30;;;;;;5090567;28;19989;-58
2023/05/17 11:00:06;;;;;;;;;;;20.10;39.30;;;;;;5076949;28;19920;-56
2023/05/17 11:02:33;;;;;;;;;;;20.10;39.40;;;;;;5076773;28;20243;-57
2023/05/17 11:05:02;;;;;;;;;;;20.10;39.40;;;;;;5076435;28;20263;-57
2023/05/17 11:07:31;;;;;;;;;;;20.10;39.50;;;;;;5072470;28;20012;-58
2023/05/17 11:10:10;;;;;;;;;;;20.10;39.60;;;;;;5089851;28;19993;-57
2023/05/17 11:12:38;;;;;;;;;;;20.10;39.60;;;;;;5075729;28;20352;-58
2023/05/17 11:15:09;;;;;;;;;;;20.10;39.60;;;;;;5095007;28;19985;-58
2023/05/17 11:17:36;;;;;;;;;;;20.10;39.50;;;;;;5097937;28;20041;-58
2023/05/17 11:20:05;;;;;;;;;;;20.20;39.60;;;;;;5096824;28;19944;-58
2023/05/17 11:22:37;;;;;;;;;;;20.20;39.60;;;;;;5093222;28;19924;-58
2023/05/17 11:25:09;;;;;;;;;;;20.20;39.60;;;;;;5092776;28;20367;-57
2023/05/17 11:27:36;;;;;;;;;;;20.20;39.60;;;;;;5093476;28;20432;-59
2023/05/17 11:30:08;;;;;;;;;;;20.20;39.60;;;;;;5094880;28;19920;-57
2023/05/17 11:32:34;;;;;;;;;;;20.20;39.60;;;;;;5080570;28;19920;-58
2023/05/17 11:35:01;;;;;;;;;;;20.20;39.60;;;;;;5096101;28;20381;-57
2023/05/17 11:37:28;;;;;;;;;;;20.20;39.60;;;;;;5077297;28;19965;-57
2023/05/17 11:40:02;;;;;;;;;;;20.20;39.50;;;;;;5095276;28;20255;-58
2023/05/17 11:42:30;;;;;;;;;;;20.20;39.50;;;;;;5096435;28;19987;-58
2023/05/17 11:44:58;;;;;;;;;;;20.20;40.10;;;;;;5079091;28;20001;-58
2023/05/17 11:47:28;;;;;;;;;;;20.20;39.50;;;;;;5097074;28;19967;-58
2023/05/17 11:49:55;;;;;;;;;;;20.20;39.50;;;;;;5095452;28;19927;-58
2023/05/17 11:52:21;;;;;;;;;;;20.20;39.40;;;;;;5097524;28;19966;-58
2023/05/17 11:54:48;;;;;;;;;;;20.20;39.40;;;;;;5096645;28;19920;-57
2023/05/17 11:57:21;;;;;;;;;;;20.20;39.30;;;;;;5096531;28;19924;-58
2023/05/17 11:59:49;;;;;;;;;;;20.20;39.30;;;;;;5095285;28;19990;-58
2023/05/17 12:02:26;;;;;;;;;;;20.20;39.30;;;;;;5096520;28;19920;-58
2023/05/17 12:04:53;;;;;;;;;;;20.20;39.20;;;;;;5095546;28;19974;-58
2023/05/17 12:07:19;;;;;;;;;;;20.20;39.20;;;;;;5095793;28;20408;-58
2023/05/17 12:09:46;;;;;;;;;;;20.20;39.20;;;;;;5096999;28;19920;-58
2023/05/17 12:12:13;;;;;;;;;;;20.20;39.30;;;;;;5079017;28;19924;-58
2023/05/17 12:14:42;;;;;;;;;;;20.20;39.20;;;;;;5093643;28;19920;-58
2023/05/17 12:17:12;;;;;;;;;;;20.20;39.20;;;;;;5077226;28;19920;-58
2023/05/17 12:19:48;;;;;;;;;;;20.20;39.30;;;;;;5079518;28;19926;-60
2023/05/17 12:22:15;;;;;;;;;;;20.20;39.20;;;;;;5078611;28;19947;-58
2023/05/17 12:24:42;;;;;;;;;;;20.20;39.20;;;;;;5095707;28;19920;-58
2023/05/17 12:27:08;;;;;;;;;;;20.20;39.20;;;;;;5099680;28;19920;-58
2023/05/17 12:47:55;;;;;;;;;;;20.20;39.10;;;;;;5080764;28;19908;-60
2023/05/17 12:53:25;;;;;;;;;;;20.20;39.10;;;;;;5076909;28;19909;-59
2023/05/17 12:55:57;;;;;;;;;;;20.20;39.10;;;;;;5075424;28;19920;-58
2023/05/17 12:58:24;;;;;;;;;;;20.10;39.00;;;;;;5094577;28;19920;-59
2023/05/17 13:00:58;;;;;;;;;;;20.20;39.00;;;;;;5074670;28;19991;-56
2023/05/17 13:03:27;;;;;;;;;;;20.20;39.70;;;;;;5096221;28;19973;-56
2023/05/17 13:05:58;;;;;;;;;;;20.20;39.10;;;;;;5078647;28;19926;-55
2023/05/17 13:08:24;;;;;;;;;;;20.20;39.20;;;;;;5078351;28;19969;-58
2023/05/17 13:10:51;;;;;;;;;;;20.20;39.20;;;;;;5095859;28;19978;-58
2023/05/17 13:13:18;;;;;;;;;;;20.20;39.20;;;;;;5083327;28;19994;-60
2023/05/17 13:15:48;;;;;;;;;;;20.20;39.20;;;;;;5057816;28;19920;-59
2023/05/17 13:18:16;;;;;;;;;;;20.20;39.20;;;;;;5075876;28;19928;-59
2023/05/17 13:20:44;;;;;;;;;;;20.20;39.30;;;;;;5096058;28;20269;-57
2023/05/17 13:23:11;;;;;;;;;;;20.20;39.30;;;;;;5096159;28;19942;-59
2023/05/17 13:25:38;;;;;;;;;;;20.20;39.30;;;;;;5095109;28;19973;-58
2023/05/17 13:28:05;;;;;;;;;;;20.20;39.20;;;;;;5094591;28;19920;-59
2023/05/17 13:30:32;;;;;;;;;;;20.20;39.20;;;;;;5095253;28;19964;-58
2023/05/17 13:33:01;;;;;;;;;;;20.20;39.20;;;;;;5095235;28;19920;-58
2023/05/17 13:35:28;;;;;;;;;;;20.20;39.20;;;;;;5086033;28;19924;-58
2023/05/17 13:37:57;;;;;;;;;;;20.20;39.20;;;;;;5057250;28;19921;-58
2023/05/17 13:40:26;;;;;;;;;;;20.20;39.20;;;;;;5072335;28;20362;-58
2023/05/17 13:42:53;;;;;;;;;;;20.20;39.20;;;;;;5073933;28;19993;-56
2023/05/17 13:45:20;;;;;;;;;;;20.20;39.10;;;;;;5074668;28;19920;-56
2023/05/17 13:47:46;;;;;;;;;;;20.20;39.10;;;;;;5074264;28;19927;-56
2023/05/17 13:50:16;;;;;;;;;;;20.20;39.10;;;;;;5074756;28;19924;-58
2023/05/17 13:52:43;;;;;;;;;;;20.20;39.20;;;;;;5074926;28;19921;-56
2023/05/17 13:55:11;;;;;;;;;;;20.20;39.10;;;;;;5073596;28;20060;-58
2023/05/17 13:57:38;;;;;;;;;;;20.20;39.00;;;;;;5074453;28;20346;-58
2023/05/17 14:00:05;;;;;;;;;;;20.20;39.00;;;;;;5056969;28;19928;-57
2023/05/17 14:02:34;;;;;;;;;;;20.20;39.00;;;;;;5073693;28;19920;-58
2023/05/17 14:05:01;;;;;;;;;;;20.20;39.00;;;;;;5056678;28;19924;-57
2023/05/17 14:07:30;;;;;;;;;;;20.20;39.10;;;;;;5075207;28;19927;-56
2023/05/17 14:09:57;;;;;;;;;;;20.20;39.10;;;;;;5114269;28;19920;-56
2023/05/17 14:12:25;;;;;;;;;;;20.20;39.00;;;;;;5114915;28;19947;-56
2023/05/17 14:14:52;;;;;;;;;;;20.30;39.10;;;;;;5115304;28;19920;-56
2023/05/17 14:17:19;;;;;;;;;;;20.20;39.00;;;;;;5076114;28;20355;-58
2023/05/17 14:19:46;;;;;;;;;;;20.30;39.20;;;;;;5093249;28;19920;-57
2023/05/17 14:22:13;;;;;;;;;;;20.30;39.10;;;;;;5091538;28;19920;-58
2023/05/17 14:24:39;;;;;;;;;;;20.20;38.90;;;;;;5094308;28;19959;-58
2023/05/17 14:27:06;;;;;;;;;;;20.20;38.80;;;;;;5093283;28;19969;-58
2023/05/17 14:29:34;;;;;;;;;;;20.20;38.70;;;;;;5093342;28;19966;-58
2023/05/17 14:32:01;;;;;;;;;;;20.20;38.70;;;;;;5091468;28;19920;-57
2023/05/17 14:34:31;;;;;;;;;;;20.20;38.70;;;;;;5094664;28;19927;-57
2023/05/17 14:36:58;;;;;;;;;;;20.20;38.70;;;;;;5093912;28;19920;-57
2023/05/17 14:39:24;;;;;;;;;;;20.20;38.60;;;;;;5083125;28;20032;-59
2023/05/17 14:41:51;;;;;;;;;;;20.20;38.60;;;;;;5096452;28;19919;-58
2023/05/17 14:44:18;;;;;;;;;;;20.20;38.50;;;;;;5089518;28;19920;-58